createdAt,value
2023-02-20T00:01:55.300Z,5.40
2023-02-20T00:04:25.808Z,5.20
2023-02-20T00:06:56.644Z,4.70
2023-02-20T00:09:25.905Z,4.70
2023-02-20T00:11:56.263Z,4.50
2023-02-20T00:14:27.593Z,4.50
2023-02-20T00:16:56.260Z,4.50
2023-02-20T00:19:28.508Z,4.80
2023-02-20T00:22:00.872Z,4.20
2023-02-20T00:24:32.680Z,5.30
2023-02-20T00:27:01.736Z,5.10
2023-02-20T00:29:34.511Z,5.60
2023-02-20T00:32:04.102Z,6.70
2023-02-20T00:34:34.214Z,6.60
2023-02-20T00:37:05.866Z,6.10
2023-02-20T00:39:35.273Z,5.90
2023-02-20T00:42:04.209Z,4.50
2023-02-20T00:44:34.098Z,5.10
2023-02-20T00:47:02.688Z,5.60
2023-02-20T00:49:31.967Z,4.40
2023-02-20T00:52:12.525Z,5.00
2023-02-20T00:54:42.511Z,4.80
2023-02-20T00:57:11.304Z,4.90
2023-02-20T00:59:39.749Z,4.70
2023-02-20T01:02:22.221Z,4.70
2023-02-20T01:04:53.376Z,4.70
2023-02-20T01:07:22.156Z,5.40
2023-02-20T01:09:50.655Z,4.70
2023-02-20T01:12:20.265Z,4.60
2023-02-20T01:14:48.719Z,5.00
2023-02-20T01:17:17.390Z,5.30
2023-02-20T01:19:45.867Z,4.10
2023-02-20T01:22:14.393Z,4.60
2023-02-20T01:24:44.315Z,4.90
2023-02-20T01:27:12.927Z,4.60
2023-02-20T01:29:41.436Z,5.00
2023-02-20T01:32:12.367Z,4.50
2023-02-20T01:34:40.828Z,4.60
2023-02-20T01:37:13.984Z,5.30
2023-02-20T01:39:43.037Z,5.50
2023-02-20T01:42:13.825Z,5.70
2023-02-20T01:44:42.797Z,5.60
2023-02-20T01:47:21.919Z,6.10
2023-02-20T01:49:57.256Z,6.50
2023-02-20T01:52:30.115Z,5.90
2023-02-20T01:55:01.932Z,5.40
2023-02-20T01:57:34.022Z,5.50
2023-02-20T02:00:10.731Z,5.10
2023-02-20T02:02:48.818Z,4.70
2023-02-20T02:05:17.373Z,4.10
2023-02-20T02:07:46.149Z,3.90
2023-02-20T02:10:19.010Z,4.50
2023-02-20T02:12:50.420Z,3.70
2023-02-20T02:15:20.212Z,4.90
2023-02-20T02:17:51.649Z,4.20
2023-02-20T02:20:45.790Z,4.40
2023-02-20T02:23:53.015Z,3.80
2023-02-20T02:26:46.146Z,3.50
2023-02-20T02:29:54.804Z,3.70
2023-02-20T02:32:43.103Z,3.20
2023-02-20T02:36:09.460Z,3.70
2023-02-20T02:38:53.300Z,3.60
2023-02-20T02:41:39.951Z,3.50
2023-02-20T02:44:31.250Z,3.70
2023-02-20T02:47:28.269Z,3.20
2023-02-20T02:50:00.380Z,3.60
2023-02-20T02:52:47.816Z,3.70
2023-02-20T02:55:19.194Z,3.20
2023-02-20T02:57:48.637Z,3.50
2023-02-20T03:00:30.472Z,3.60
2023-02-20T03:03:07.550Z,3.80
2023-02-20T03:06:03.308Z,4.90
2023-02-20T03:08:43.860Z,4.70
2023-02-20T03:11:21.060Z,6.00
2023-02-20T03:14:28.693Z,5.90
2023-02-20T03:16:59.119Z,6.40
2023-02-20T03:19:34.426Z,6.00
2023-02-20T03:22:03.167Z,5.30
2023-02-20T03:24:31.753Z,4.30
2023-02-20T03:27:02.179Z,5.10
2023-02-20T03:29:34.468Z,4.30
2023-02-20T03:32:26.781Z,4.60
2023-02-20T03:35:15.952Z,5.10
2023-02-20T03:38:03.757Z,6.30
2023-02-20T03:40:52.014Z,6.60
2023-02-20T03:43:28.141Z,8.90
2023-02-20T03:46:04.425Z,6.60
2023-02-20T03:48:33.448Z,5.80
2023-02-20T03:51:02.289Z,5.10
2023-02-20T03:53:33.675Z,5.10
2023-02-20T03:56:06.897Z,5.60
2023-02-20T03:58:38.767Z,7.20
2023-02-20T04:01:08.003Z,4.40
2023-02-20T04:03:40.869Z,4.40
2023-02-20T04:06:09.946Z,3.50
2023-02-20T04:08:45.785Z,3.70
2023-02-20T04:11:15.840Z,3.20
2023-02-20T04:13:46.109Z,3.20
2023-02-20T04:16:15.400Z,2.70
2023-02-20T04:18:44.781Z,2.40
2023-02-20T04:21:24.329Z,2.70
2023-02-20T04:24:03.347Z,2.90
2023-02-20T04:26:32.716Z,2.70
2023-02-20T04:29:01.443Z,2.50
2023-02-20T04:31:30.303Z,3.10
2023-02-20T04:33:59.044Z,2.60
2023-02-20T04:36:28.395Z,2.90
2023-02-20T04:38:58.877Z,2.90
2023-02-20T04:41:31.608Z,2.80
2023-02-20T04:44:18.962Z,2.80
2023-02-20T04:46:48.759Z,2.40
2023-02-20T04:49:17.588Z,3.30
2023-02-20T04:51:50.344Z,3.10
2023-02-20T04:54:19.251Z,2.60
2023-02-20T04:56:47.832Z,3.30
2023-02-20T04:59:16.934Z,3.80
2023-02-20T05:01:48.402Z,3.50
2023-02-20T05:04:17.165Z,4.10
2023-02-20T05:09:20.793Z,5.30
2023-02-20T05:11:49.355Z,4.70
2023-02-20T05:14:18.870Z,4.80
2023-02-20T05:16:47.604Z,5.60
2023-02-20T05:19:16.789Z,6.60
2023-02-20T05:22:04.255Z,5.40
2023-02-20T05:24:33.358Z,6.60
2023-02-20T05:27:02.248Z,6.70
2023-02-20T05:29:31.016Z,7.80
2023-02-20T05:31:59.846Z,7.90
2023-02-20T05:34:28.311Z,8.30
2023-02-20T05:36:57.570Z,8.00
2023-02-20T05:39:26.133Z,9.60
2023-02-20T05:41:54.947Z,11.10
2023-02-20T05:44:23.788Z,11.70
2023-02-20T05:46:54.605Z,11.00
2023-02-20T05:49:23.827Z,11.00
2023-02-20T05:51:53.298Z,11.00
2023-02-20T05:54:22.795Z,9.90
2023-02-20T05:56:51.815Z,12.10
2023-02-20T05:59:21.748Z,11.70
2023-02-20T06:01:55.780Z,10.00
2023-02-20T06:04:24.545Z,11.00
2023-02-20T06:06:53.487Z,10.40
2023-02-20T06:09:21.978Z,10.30
2023-02-20T06:11:54.240Z,9.00
2023-02-20T06:14:23.967Z,7.50
2023-02-20T06:16:52.493Z,7.90
2023-02-20T06:19:24.543Z,8.60
2023-02-20T06:21:53.773Z,8.50
2023-02-20T06:24:22.649Z,8.00
2023-02-20T06:26:52.527Z,7.50
2023-02-20T06:29:21.315Z,6.00
2023-02-20T06:31:50.622Z,5.80
2023-02-20T06:34:19.600Z,5.70
2023-02-20T06:36:48.472Z,6.50
2023-02-20T06:39:16.963Z,6.80
2023-02-20T06:41:45.877Z,8.30
2023-02-20T06:44:14.725Z,8.20
2023-02-20T06:46:43.678Z,8.30
2023-02-20T06:49:12.739Z,7.00
2023-02-20T06:51:41.542Z,6.40
2023-02-20T06:54:11.860Z,7.30
2023-02-20T06:56:41.066Z,6.40
2023-02-20T06:59:11.191Z,7.20
2023-02-20T07:01:42.265Z,8.20
2023-02-20T07:04:28.796Z,9.60
2023-02-20T07:06:57.263Z,10.20
2023-02-20T07:09:26.211Z,8.70
2023-02-20T07:11:55.396Z,19.90
2023-02-20T07:14:24.909Z,9.30
2023-02-20T07:16:53.382Z,8.70
2023-02-20T07:19:22.275Z,9.50
2023-02-20T07:21:51.573Z,7.10
2023-02-20T07:24:24.268Z,8.10
2023-02-20T07:29:21.397Z,7.80
2023-02-20T07:31:50.617Z,8.20
2023-02-20T07:34:19.293Z,9.70
2023-02-20T07:36:49.421Z,7.60
2023-02-20T07:39:18.001Z,8.10
2023-02-20T07:41:47.093Z,8.40
2023-02-20T07:44:36.401Z,10.50
2023-02-20T07:47:05.466Z,36.80
2023-02-20T07:49:34.360Z,18.60
2023-02-20T07:52:04.995Z,14.80
2023-02-20T07:54:33.588Z,12.40
2023-02-20T07:57:02.351Z,10.10
2023-02-20T07:59:31.850Z,8.50
2023-02-20T08:02:00.643Z,7.80
2023-02-20T08:04:30.759Z,7.70
2023-02-20T08:06:59.443Z,11.80
2023-02-20T08:09:28.642Z,10.20
2023-02-20T08:11:57.541Z,6.40
2023-02-20T08:14:29.631Z,5.00
2023-02-20T08:16:58.338Z,6.10
2023-02-20T08:19:26.844Z,4.80
2023-02-20T08:21:57.613Z,4.20
2023-02-20T08:24:26.392Z,4.40
2023-02-20T08:26:57.593Z,5.60
2023-02-20T08:29:27.551Z,5.20
2023-02-20T08:31:56.708Z,4.50
2023-02-20T08:34:25.840Z,3.50
2023-02-20T08:36:54.321Z,4.20
2023-02-20T08:39:23.423Z,5.60
2023-02-20T08:41:52.696Z,6.30
2023-02-20T08:44:22.293Z,7.30
2023-02-20T08:46:54.386Z,9.20
2023-02-20T08:49:27.109Z,8.00
2023-02-20T08:51:56.127Z,11.40
2023-02-20T08:54:24.738Z,7.20
2023-02-20T08:56:53.759Z,5.70
2023-02-20T08:59:22.542Z,5.10
2023-02-20T09:01:51.220Z,8.90
2023-02-20T09:04:21.759Z,6.50
2023-02-20T09:06:50.433Z,7.10
2023-02-20T09:09:19.011Z,6.80
2023-02-20T09:11:47.969Z,6.90
2023-02-20T09:14:17.221Z,10.30
2023-02-20T09:16:53.199Z,6.60
2023-02-20T09:19:21.873Z,9.40
2023-02-20T09:21:50.604Z,6.50
2023-02-20T09:24:19.228Z,8.20
2023-02-20T09:26:48.069Z,5.50
2023-02-20T09:29:17.215Z,4.10
2023-02-20T09:31:46.617Z,3.00
2023-02-20T09:34:16.453Z,3.10
2023-02-20T09:36:45.215Z,4.80
2023-02-20T09:39:18.243Z,5.10
2023-02-20T09:41:58.347Z,11.10
2023-02-20T09:47:24.957Z,3.60
2023-02-20T09:50:02.811Z,5.00
2023-02-20T09:52:35.906Z,5.00
2023-02-20T09:55:13.709Z,4.30
2023-02-20T09:57:43.202Z,4.60
2023-02-20T10:00:36.568Z,5.10
2023-02-20T10:03:41.257Z,10.80
2023-02-20T10:06:17.511Z,7.70
2023-02-20T10:08:50.408Z,5.30
2023-02-20T10:11:29.384Z,4.40
2023-02-20T10:14:30.928Z,4.30
2023-02-20T10:17:22.799Z,3.50
2023-02-20T10:20:12.754Z,2.90
2023-02-20T10:23:20.323Z,4.30
2023-02-20T10:25:55.074Z,3.70
2023-02-20T10:28:23.887Z,6.20
2023-02-20T10:30:58.295Z,7.40
2023-02-20T10:33:30.475Z,8.70
2023-02-20T10:36:12.126Z,3.60
2023-02-20T10:39:15.196Z,9.70
2023-02-20T10:42:08.933Z,12.80
2023-02-20T10:44:52.175Z,5.40
2023-02-20T10:47:32.624Z,3.30
2023-02-20T10:50:17.579Z,4.00
2023-02-20T10:53:23.870Z,3.60
2023-02-20T10:55:58.482Z,3.90
2023-02-20T10:58:34.585Z,4.50
2023-02-20T11:01:05.877Z,4.90
2023-02-20T11:04:12.448Z,4.20
2023-02-20T11:06:47.070Z,4.10
2023-02-20T11:09:15.973Z,5.20
2023-02-20T11:11:49.604Z,3.80
2023-02-20T11:14:34.135Z,3.20
2023-02-20T11:17:14.681Z,4.20
2023-02-20T11:19:48.544Z,8.10
2023-02-20T11:22:18.296Z,12.50
2023-02-20T11:24:47.527Z,3.50
2023-02-20T11:27:17.516Z,3.90
2023-02-20T11:29:51.963Z,5.00
2023-02-20T11:32:20.760Z,9.80
2023-02-20T11:35:17.971Z,6.60
2023-02-20T11:37:55.245Z,4.40
2023-02-20T11:40:29.232Z,4.90
2023-02-20T11:43:16.577Z,6.10
2023-02-20T11:45:45.421Z,4.50
2023-02-20T11:48:19.784Z,5.00
2023-02-20T11:50:52.816Z,3.90
2023-02-20T11:53:27.536Z,5.20
2023-02-20T11:56:16.852Z,7.80
2023-02-20T11:58:47.060Z,4.10
2023-02-20T12:01:33.924Z,6.40
2023-02-20T12:04:04.664Z,9.50
2023-02-20T12:06:33.735Z,5.00
2023-02-20T12:09:03.051Z,5.10
2023-02-20T12:11:31.823Z,5.30
2023-02-20T12:14:01.855Z,8.50
2023-02-20T12:17:06.980Z,7.30
2023-02-20T12:19:41.108Z,4.10
2023-02-20T12:22:10.186Z,4.80
2023-02-20T12:24:58.839Z,2.70
2023-02-20T12:27:39.853Z,2.80
2023-02-20T12:30:36.453Z,7.30
2023-02-20T12:33:06.282Z,8.90
2023-02-20T12:35:36.811Z,5.30
2023-02-20T12:38:42.231Z,4.00
2023-02-20T12:41:32.958Z,3.90
2023-02-20T12:44:16.484Z,3.10
2023-02-20T12:46:57.813Z,6.00
2023-02-20T12:49:39.871Z,5.50
2023-02-20T12:52:21.261Z,4.40
2023-02-20T12:54:56.092Z,4.20
2023-02-20T12:57:44.589Z,4.50
2023-02-20T13:00:23.763Z,2.60
2023-02-20T13:02:58.253Z,3.60
2023-02-20T13:05:32.678Z,4.00
2023-02-20T13:08:04.124Z,4.30
2023-02-20T13:10:34.593Z,7.80
2023-02-20T13:13:03.492Z,4.50
2023-02-20T13:15:42.914Z,4.10
2023-02-20T13:18:18.527Z,4.40
2023-02-20T13:20:52.888Z,6.50
2023-02-20T13:23:21.563Z,3.40
2023-02-20T13:25:51.454Z,3.10
2023-02-20T13:28:43.482Z,3.30
2023-02-20T13:31:14.611Z,3.30
2023-02-20T13:33:54.693Z,3.70
2023-02-20T13:36:29.203Z,3.90
2023-02-20T13:39:20.124Z,5.20
2023-02-20T13:41:54.715Z,5.50
2023-02-20T13:44:34.411Z,4.90
2023-02-20T13:47:03.403Z,4.50
2023-02-20T13:49:50.315Z,5.50
2023-02-20T13:52:41.541Z,5.00
2023-02-20T13:55:11.407Z,5.70
2023-02-20T13:57:48.622Z,5.50
2023-02-20T14:00:46.582Z,5.40
2023-02-20T14:03:20.777Z,5.30
2023-02-20T14:06:02.726Z,8.30
2023-02-20T14:08:31.810Z,6.40
2023-02-20T14:11:08.464Z,11.80
2023-02-20T14:13:41.308Z,4.90
2023-02-20T14:16:29.340Z,4.90
2023-02-20T14:19:01.198Z,5.50
2023-02-20T14:21:30.400Z,4.10
2023-02-20T14:24:03.972Z,5.40
2023-02-20T14:26:34.232Z,5.30
2023-02-20T14:29:02.945Z,5.90
2023-02-20T14:31:34.132Z,5.70
2023-02-20T14:34:08.821Z,7.50
2023-02-20T14:36:58.838Z,6.20
2023-02-20T14:39:33.614Z,6.00
2023-02-20T14:42:03.914Z,5.60
2023-02-20T14:44:32.733Z,6.00
2023-02-20T14:47:10.874Z,5.40
2023-02-20T14:49:39.988Z,7.40
2023-02-20T14:52:11.683Z,5.50
2023-02-20T14:54:44.757Z,4.90
2023-02-20T14:57:16.581Z,5.60
2023-02-20T14:59:45.373Z,5.70
2023-02-20T15:02:31.323Z,4.20
2023-02-20T15:05:07.064Z,5.00
2023-02-20T15:07:39.585Z,4.50
2023-02-20T15:10:48.901Z,4.70
2023-02-20T15:13:27.811Z,3.90
2023-02-20T15:16:07.840Z,4.40
2023-02-20T15:18:38.486Z,3.50
2023-02-20T15:43:59.308Z,4.00
2023-02-20T15:46:30.389Z,4.10
2023-02-20T15:49:01.814Z,3.90
2023-02-20T15:51:36.668Z,3.60
2023-02-20T15:54:05.609Z,2.90
2023-02-20T15:56:34.646Z,2.90
2023-02-20T15:59:06.863Z,3.00
2023-02-20T16:01:35.475Z,3.20
2023-02-20T16:04:06.074Z,3.00
2023-02-20T16:06:34.930Z,2.70
2023-02-20T16:09:04.665Z,2.60
2023-02-20T16:11:44.564Z,3.30
2023-02-20T16:14:14.509Z,3.60
2023-02-20T16:16:45.115Z,4.20
2023-02-20T16:19:15.850Z,3.30
2023-02-20T16:21:57.809Z,3.70
2023-02-20T16:24:27.804Z,3.60
2023-02-20T16:26:56.785Z,3.30
2023-02-20T16:29:33.013Z,3.60
2023-02-20T16:32:07.885Z,3.40
2023-02-20T16:34:38.566Z,3.60
2023-02-20T16:37:10.592Z,3.50
2023-02-20T16:39:39.941Z,2.90
2023-02-20T16:42:29.920Z,2.80
2023-02-20T16:44:59.160Z,1.90
2023-02-20T16:47:29.324Z,2.40
2023-02-20T16:50:01.689Z,2.60
2023-02-20T16:52:38.331Z,2.10
2023-02-20T16:55:08.874Z,2.20
2023-02-20T16:57:37.908Z,2.70
2023-02-20T17:00:07.352Z,2.90
2023-02-20T17:02:35.853Z,3.00
2023-02-20T17:05:05.450Z,2.40
2023-02-20T17:07:35.034Z,3.00
2023-02-20T17:10:06.481Z,3.40
2023-02-20T17:12:35.108Z,3.50
2023-02-20T17:15:05.545Z,3.80
2023-02-20T17:17:34.464Z,3.90
2023-02-20T17:20:03.040Z,3.60
2023-02-20T17:22:34.358Z,3.40
2023-02-20T17:25:03.177Z,3.80
2023-02-20T17:27:31.991Z,3.50
2023-02-20T17:30:02.237Z,3.30
2023-02-20T17:32:33.052Z,2.70
2023-02-20T17:35:02.199Z,3.10
2023-02-20T17:37:32.752Z,3.00
2023-02-20T17:40:02.255Z,3.20
2023-02-20T17:42:31.952Z,3.20
2023-02-20T17:45:00.582Z,3.00
2023-02-20T17:47:29.931Z,4.10
2023-02-20T17:50:01.794Z,3.80
2023-02-20T17:52:30.867Z,3.60
2023-02-20T17:54:59.308Z,3.60
2023-02-20T17:57:28.684Z,3.80
2023-02-20T17:59:57.179Z,3.50
2023-02-20T18:02:26.695Z,3.50
2023-02-20T18:04:55.765Z,3.60
2023-02-20T18:07:26.498Z,3.20
2023-02-20T18:09:57.405Z,3.40
2023-02-20T18:12:27.166Z,3.90
2023-02-20T18:14:56.063Z,3.60
2023-02-20T18:17:25.429Z,3.20
2023-02-20T18:19:54.639Z,3.10
2023-02-20T18:22:23.417Z,3.60
2023-02-20T18:24:53.022Z,3.50
2023-02-20T18:27:22.427Z,3.10
2023-02-20T18:29:50.980Z,3.40
2023-02-20T18:32:19.737Z,3.20
2023-02-20T18:34:48.407Z,4.00
2023-02-20T18:37:17.324Z,3.80
2023-02-20T18:39:46.379Z,4.20
2023-02-20T18:42:15.159Z,4.50
2023-02-20T18:44:48.394Z,3.90
2023-02-20T18:49:48.247Z,2.60
2023-02-20T18:52:20.332Z,3.00
2023-02-20T18:54:49.338Z,2.20
2023-02-20T18:57:17.919Z,1.80
2023-02-20T18:59:46.725Z,2.20
2023-02-20T19:02:15.659Z,2.00
2023-02-20T19:04:44.686Z,2.60
2023-02-20T19:07:13.132Z,2.30
2023-02-20T19:09:43.458Z,2.50
2023-02-20T19:12:12.273Z,2.80
2023-02-20T19:14:41.076Z,2.20
2023-02-20T19:17:12.808Z,2.80
2023-02-20T19:19:42.753Z,2.80
2023-02-20T19:22:11.458Z,2.80
2023-02-20T19:24:40.405Z,2.40
2023-02-20T19:27:09.690Z,2.70
2023-02-20T19:29:40.717Z,2.40
2023-02-20T19:32:11.171Z,2.90
2023-02-20T19:34:39.892Z,2.60
2023-02-20T19:37:08.682Z,3.30
2023-02-20T19:39:37.799Z,3.30
2023-02-20T19:42:07.680Z,3.40
2023-02-20T19:44:36.571Z,4.40
2023-02-20T19:47:05.460Z,3.90
2023-02-20T19:49:34.147Z,4.00
2023-02-20T19:52:02.830Z,3.90
2023-02-20T19:54:32.134Z,3.60
2023-02-20T19:57:02.044Z,3.60
2023-02-20T19:59:31.858Z,3.80
2023-02-20T20:02:00.765Z,3.80
2023-02-20T20:04:32.383Z,3.70
2023-02-20T20:07:02.881Z,3.50
2023-02-20T20:09:36.718Z,3.10
2023-02-20T20:12:26.822Z,2.80
2023-02-20T20:14:56.090Z,3.10
2023-02-20T20:17:27.067Z,3.40
2023-02-20T20:20:00.526Z,3.60
2023-02-20T20:22:30.172Z,3.20
2023-02-20T20:24:59.266Z,3.10
2023-02-20T20:27:28.476Z,3.30
2023-02-20T20:29:57.463Z,3.60
2023-02-20T20:32:26.145Z,3.80
2023-02-20T20:34:55.864Z,3.50
2023-02-20T20:37:25.758Z,3.50
2023-02-20T20:39:56.677Z,3.10
2023-02-20T20:42:27.441Z,3.60
2023-02-20T20:45:02.570Z,3.70
2023-02-20T20:47:31.988Z,3.70
2023-02-20T20:50:00.782Z,3.50
2023-02-20T20:52:31.291Z,3.50
2023-02-20T20:55:03.253Z,3.60
2023-02-20T20:57:35.786Z,3.90
2023-02-20T21:00:06.152Z,3.60
2023-02-20T21:02:35.460Z,3.70
2023-02-20T21:05:10.287Z,3.40
2023-02-20T21:07:40.505Z,4.00
2023-02-20T21:10:09.785Z,4.00
2023-02-20T21:12:38.950Z,4.50
2023-02-20T21:15:08.934Z,3.70
2023-02-20T21:17:38.120Z,4.00
2023-02-20T21:20:08.685Z,3.00
2023-02-20T21:22:38.049Z,4.40
2023-02-20T21:25:06.629Z,3.40
2023-02-20T21:27:35.636Z,4.20
2023-02-20T21:30:04.780Z,3.90
2023-02-20T21:32:33.708Z,3.90
2023-02-20T21:35:02.705Z,4.40
2023-02-20T21:37:31.461Z,3.90
2023-02-20T21:40:02.251Z,3.90
2023-02-20T21:42:50.369Z,3.60
2023-02-20T21:45:19.465Z,4.00
2023-02-20T21:47:48.657Z,4.00
2023-02-20T21:50:17.753Z,4.10
2023-02-20T21:52:51.668Z,4.00
2023-02-20T21:55:20.451Z,4.40
2023-02-20T21:57:49.037Z,4.60
2023-02-20T22:00:17.621Z,3.70
2023-02-20T22:02:46.562Z,3.50
2023-02-20T22:05:15.508Z,3.90
2023-02-20T22:08:03.232Z,4.00
2023-02-20T22:10:51.763Z,4.10
2023-02-20T22:13:40.342Z,3.80
2023-02-20T22:16:28.901Z,3.80
2023-02-20T22:19:16.836Z,4.00
2023-02-20T22:22:07.013Z,4.40
2023-02-20T22:24:55.172Z,4.10
2023-02-20T22:27:43.913Z,3.60
2023-02-20T22:30:31.392Z,4.40
2023-02-20T22:33:21.427Z,4.10
2023-02-20T22:36:08.958Z,4.30
2023-02-20T22:38:57.213Z,4.20
2023-02-20T22:41:44.940Z,4.00
2023-02-20T22:44:32.256Z,4.40
2023-02-20T22:47:19.593Z,4.80
2023-02-20T22:50:07.507Z,4.60
2023-02-20T22:52:55.250Z,3.90
2023-02-20T22:55:42.775Z,4.20
2023-02-20T22:58:30.920Z,4.20
2023-02-20T23:01:19.062Z,4.30
2023-02-20T23:04:06.904Z,4.30
2023-02-20T23:06:56.378Z,4.30
2023-02-20T23:09:43.792Z,4.20
2023-02-20T23:12:31.932Z,4.50
2023-02-20T23:15:19.670Z,4.70
2023-02-20T23:18:09.045Z,5.50
2023-02-20T23:20:57.657Z,4.80
2023-02-20T23:23:45.121Z,4.90
2023-02-20T23:26:32.467Z,4.60
2023-02-20T23:29:20.066Z,4.50
2023-02-20T23:32:08.217Z,4.80
2023-02-20T23:34:55.832Z,4.60
2023-02-20T23:37:44.092Z,3.70
2023-02-20T23:40:36.877Z,4.10
2023-02-20T23:43:25.178Z,4.50
2023-02-20T23:46:12.849Z,4.50
2023-02-20T23:48:59.837Z,4.60
2023-02-20T23:51:47.342Z,5.10
2023-02-20T23:54:35.109Z,4.30
2023-02-20T23:57:22.685Z,4.10
